createdAt,value
2023-04-21T00:02:37.956Z,15.10
2023-04-21T00:06:39.456Z,16.93
2023-04-21T00:10:41.216Z,17.07
2023-04-21T00:14:42.630Z,16.23
2023-04-21T00:18:45.354Z,17.37
2023-04-21T00:22:46.870Z,16.60
2023-04-21T00:26:48.278Z,17.03
2023-04-21T00:30:49.690Z,16.57
2023-04-21T00:34:52.433Z,17.40
2023-04-21T00:38:53.886Z,16.90
2023-04-21T00:42:55.306Z,17.37
2023-04-21T00:46:56.702Z,17.77
2023-04-21T00:50:59.441Z,17.80
2023-04-21T00:55:00.848Z,16.07
2023-04-21T00:59:03.137Z,18.33
2023-04-21T01:03:06.448Z,19.30
2023-04-21T01:07:09.633Z,20.03
2023-04-21T01:11:11.550Z,18.40
2023-04-21T01:15:13.966Z,18.90
2023-04-21T01:19:15.324Z,19.67
2023-04-21T01:23:18.076Z,20.70
2023-04-21T01:27:20.554Z,18.00
2023-04-21T01:31:21.955Z,21.73
2023-04-21T01:35:23.452Z,19.30
2023-04-21T01:39:26.331Z,19.00
2023-04-21T01:43:27.798Z,19.80
2023-04-21T01:47:29.412Z,18.63
2023-04-21T01:51:30.807Z,20.03
2023-04-21T01:55:33.643Z,19.07
2023-04-21T01:59:35.222Z,21.30
2023-04-21T02:03:36.865Z,20.00
2023-04-21T02:07:38.382Z,19.70
2023-04-21T02:11:41.093Z,20.53
2023-04-21T02:15:42.724Z,21.03
2023-04-21T02:19:44.415Z,19.43
2023-04-21T02:23:46.029Z,21.03
2023-04-21T02:27:49.011Z,20.33
2023-04-21T02:32:00.770Z,18.93
2023-04-21T02:36:05.538Z,18.70
2023-04-21T02:40:08.378Z,21.23
2023-04-21T02:44:11.327Z,20.70
2023-04-21T02:48:12.725Z,21.93
2023-04-21T02:52:14.307Z,21.73
2023-04-21T02:56:15.702Z,21.47
2023-04-21T03:00:18.902Z,21.57
2023-04-21T03:04:20.482Z,23.57
2023-04-21T03:08:22.056Z,23.47
2023-04-21T03:12:23.439Z,23.83
2023-04-21T03:16:26.459Z,23.10
2023-04-21T03:20:28.012Z,22.60
2023-04-21T03:24:29.446Z,23.13
2023-04-21T03:28:30.874Z,27.83
2023-04-21T03:32:33.687Z,26.77
2023-04-21T03:36:35.120Z,28.27
2023-04-21T03:40:37.081Z,27.50
2023-04-21T03:44:38.484Z,25.10
2023-04-21T03:48:41.216Z,27.67
2023-04-21T03:52:42.948Z,26.73
2023-04-21T03:56:44.421Z,27.67
2023-04-21T04:00:45.854Z,27.93
2023-04-21T04:04:48.710Z,27.47
2023-04-21T04:08:50.185Z,28.30
2023-04-21T04:12:51.891Z,29.07
2023-04-21T04:16:53.271Z,29.10
2023-04-21T04:20:55.978Z,27.63
2023-04-21T04:24:57.383Z,27.87
2023-04-21T04:28:58.732Z,29.97
2023-04-21T04:33:00.262Z,28.33
2023-04-21T04:37:03.212Z,29.60
2023-04-21T04:41:04.826Z,30.20
2023-04-21T04:45:07.231Z,30.87
2023-04-21T04:49:10.902Z,34.67
2023-04-21T04:53:13.619Z,36.57
2023-04-21T04:57:14.962Z,28.43
2023-04-21T05:01:17.486Z,32.17
2023-04-21T05:05:19.126Z,27.90
2023-04-21T05:09:21.931Z,27.50
2023-04-21T05:13:23.350Z,26.40
2023-04-21T05:17:24.836Z,27.97
2023-04-21T05:21:28.429Z,28.87
2023-04-21T05:25:31.469Z,29.40
2023-04-21T05:29:32.945Z,27.53
2023-04-21T05:33:34.303Z,29.80
2023-04-21T05:37:35.675Z,27.03
2023-04-21T05:41:38.434Z,27.53
2023-04-21T05:45:40.095Z,26.97
2023-04-21T05:49:41.513Z,23.87
2023-04-21T05:53:44.229Z,23.97
2023-04-21T05:57:47.259Z,30.20
2023-04-21T06:01:48.632Z,23.57
2023-04-21T06:05:53.795Z,23.00
2023-04-21T06:09:55.289Z,20.70
2023-04-21T06:13:58.262Z,18.80
2023-04-21T06:17:59.717Z,17.97
2023-04-21T06:22:01.107Z,17.30
2023-04-21T06:26:03.681Z,16.60
2023-04-21T06:30:08.090Z,15.93
2023-04-21T06:34:09.551Z,15.33
2023-04-21T06:38:11.078Z,13.97
2023-04-21T06:42:12.516Z,13.03
2023-04-21T06:46:15.499Z,13.97
2023-04-21T06:50:17.108Z,16.43
2023-04-21T06:54:18.551Z,17.70
2023-04-21T06:58:21.448Z,18.20
2023-04-21T07:02:24.634Z,18.00
2023-04-21T07:06:27.002Z,18.70
2023-04-21T07:10:28.720Z,15.83
2023-04-21T07:14:30.152Z,14.73
2023-04-21T07:18:32.884Z,15.93
2023-04-21T07:22:34.280Z,13.60
2023-04-21T07:26:35.694Z,13.93
2023-04-21T07:30:37.287Z,13.57
2023-04-21T07:34:40.296Z,14.20
2023-04-21T07:38:41.920Z,14.37
2023-04-21T07:42:44.558Z,14.57
2023-04-21T07:46:46.333Z,14.70
2023-04-21T07:50:49.279Z,15.00
2023-04-21T07:54:50.749Z,15.73
2023-04-21T07:58:52.421Z,16.73
2023-04-21T08:02:53.939Z,16.83
2023-04-21T08:06:56.915Z,16.67
2023-04-21T08:10:58.338Z,16.17
2023-04-21T08:14:59.729Z,19.40
2023-04-21T08:19:01.097Z,16.17
2023-04-21T08:23:03.919Z,16.30
2023-04-21T08:27:05.484Z,18.50
2023-04-21T08:31:06.905Z,15.97
2023-04-21T08:35:09.099Z,17.10
2023-04-21T08:39:11.865Z,16.93
2023-04-21T08:43:13.335Z,16.33
2023-04-21T08:47:15.398Z,16.90
2023-04-21T08:51:21.951Z,16.33
2023-04-21T08:55:29.395Z,15.87
2023-04-21T08:59:31.065Z,16.10
2023-04-21T09:03:32.837Z,14.97
2023-04-21T09:07:36.334Z,15.80
2023-04-21T09:11:39.064Z,14.33
2023-04-21T09:15:40.702Z,14.03
2023-04-21T09:19:42.847Z,15.20
2023-04-21T09:23:46.986Z,16.27
2023-04-21T09:27:49.706Z,14.57
2023-04-21T09:31:51.510Z,14.50
2023-04-21T09:35:53.043Z,21.03
2023-04-21T09:40:04.091Z,13.03
2023-04-21T09:44:07.727Z,12.00
2023-04-21T09:48:10.348Z,13.10
2023-04-21T09:52:19.156Z,15.90
2023-04-21T09:56:25.062Z,12.73
2023-04-21T10:00:29.181Z,12.40
2023-04-21T10:04:32.057Z,13.33
2023-04-21T10:08:35.029Z,12.23
2023-04-21T10:12:36.601Z,11.33
2023-04-21T10:16:39.689Z,11.97
2023-04-21T10:21:02.960Z,11.27
2023-04-21T10:25:08.298Z,10.67
2023-04-21T10:29:10.637Z,11.13
2023-04-21T10:33:17.584Z,10.53
2023-04-21T10:37:19.215Z,12.23
2023-04-21T10:41:27.955Z,11.77
2023-04-21T10:45:30.443Z,10.53
2023-04-21T10:49:38.412Z,10.70
2023-04-21T10:53:43.817Z,11.67
2023-04-21T10:57:45.572Z,12.60
2023-04-21T11:01:47.052Z,11.47
2023-04-21T11:05:49.813Z,11.63
2023-04-21T11:09:57.820Z,9.70
2023-04-21T11:14:00.245Z,11.10
2023-04-21T11:18:01.840Z,9.00
2023-04-21T11:22:05.376Z,8.67
2023-04-21T11:26:06.808Z,8.67
2023-04-21T11:30:09.657Z,7.97
2023-04-21T11:34:11.400Z,9.30
2023-04-21T11:38:14.169Z,9.03
2023-04-21T11:42:21.440Z,8.30
2023-04-21T11:46:25.030Z,7.60
2023-04-21T11:50:30.847Z,8.77
2023-04-21T11:54:33.640Z,7.70
2023-04-21T11:58:35.134Z,7.10
2023-04-21T12:02:36.639Z,8.43
2023-04-21T12:06:38.395Z,8.53
2023-04-21T12:10:44.607Z,7.73
2023-04-21T12:14:46.323Z,7.67
2023-04-21T12:18:48.630Z,6.93
2023-04-21T12:22:50.714Z,7.17
2023-04-21T12:26:53.787Z,5.90
2023-04-21T12:30:55.246Z,6.53
2023-04-21T12:34:56.913Z,6.50
2023-04-21T12:38:58.314Z,7.33
2023-04-21T12:43:01.716Z,6.67
2023-04-21T12:47:03.168Z,5.67
2023-04-21T12:51:04.723Z,5.90
2023-04-21T12:55:06.612Z,9.47
2023-04-21T12:59:10.331Z,6.23
2023-04-21T13:03:12.020Z,7.20
2023-04-21T13:07:13.941Z,5.10
2023-04-21T13:11:15.442Z,4.80
2023-04-21T13:15:18.434Z,4.97
2023-04-21T13:19:19.849Z,5.00
2023-04-21T13:23:21.279Z,7.03
2023-04-21T13:27:22.715Z,5.07
2023-04-21T13:31:25.748Z,5.23
2023-04-21T13:35:27.287Z,6.07
2023-04-21T13:39:28.747Z,8.17
2023-04-21T13:43:30.346Z,9.47
2023-04-21T13:47:33.894Z,7.73
2023-04-21T13:51:35.330Z,7.23
2023-04-21T13:55:36.889Z,5.43
2023-04-21T13:59:38.486Z,6.27
2023-04-21T14:03:41.690Z,7.90
2023-04-21T14:07:43.731Z,6.40
2023-04-21T14:11:45.314Z,6.90
2023-04-21T14:15:46.779Z,7.03
2023-04-21T14:19:50.209Z,8.80
2023-04-21T14:23:52.012Z,6.23
2023-04-21T14:27:53.753Z,6.47
2023-04-21T14:31:55.170Z,8.10
2023-04-21T14:35:57.977Z,7.20
2023-04-21T14:39:59.466Z,8.17
2023-04-21T14:44:00.943Z,8.30
2023-04-21T14:48:02.707Z,7.67
2023-04-21T14:52:06.225Z,5.53
2023-04-21T14:56:07.664Z,5.60
2023-04-21T15:00:10.214Z,5.97
2023-04-21T15:04:11.896Z,5.37
2023-04-21T15:08:14.823Z,5.37
2023-04-21T15:12:16.307Z,7.67
2023-04-21T15:16:17.853Z,11.00
2023-04-21T15:20:24.399Z,5.43
2023-04-21T15:24:32.515Z,9.80
2023-04-21T15:28:34.025Z,5.17
2023-04-21T15:32:35.443Z,4.50
2023-04-21T15:36:36.929Z,7.53
2023-04-21T15:40:53.134Z,4.37
2023-04-21T15:45:02.243Z,4.83
2023-04-21T15:49:03.718Z,5.63
2023-04-21T15:53:05.172Z,5.90
2023-04-21T15:57:08.050Z,8.30
2023-04-21T16:01:09.738Z,6.07
2023-04-21T16:05:11.511Z,2.90
2023-04-21T16:09:12.954Z,2.10
2023-04-21T16:13:15.859Z,3.63
2023-04-21T16:17:17.286Z,1.93
2023-04-21T16:21:18.824Z,4.00
2023-04-21T16:25:20.364Z,3.70
2023-04-21T16:29:23.239Z,3.83
2023-04-21T16:33:24.666Z,1.60
2023-04-21T16:37:26.171Z,2.97
2023-04-21T16:41:27.696Z,3.57
2023-04-21T16:45:30.535Z,1.90
2023-04-21T16:49:32.015Z,2.13
2023-04-21T16:53:33.678Z,4.10
2023-04-21T16:57:35.176Z,4.33
2023-04-21T17:01:38.258Z,2.47
2023-04-21T17:05:40.077Z,3.60
2023-04-21T17:09:41.668Z,1.70
2023-04-21T17:13:43.128Z,2.47
2023-04-21T17:17:45.950Z,3.47
2023-04-21T17:21:47.755Z,4.27
2023-04-21T17:25:49.426Z,1.60
2023-04-21T17:29:50.886Z,3.13
2023-04-21T17:33:53.665Z,2.80
2023-04-21T17:37:55.378Z,3.53
2023-04-21T17:41:56.848Z,2.57
2023-04-21T17:45:58.379Z,2.10
2023-04-21T17:50:01.401Z,5.07
2023-04-21T17:54:03.058Z,4.97
2023-04-21T17:58:04.806Z,4.23
2023-04-21T18:02:07.157Z,4.80
2023-04-21T18:06:10.063Z,2.30
2023-04-21T18:10:12.400Z,1.60
2023-04-21T18:14:13.812Z,2.87
2023-04-21T18:18:15.209Z,3.83
2023-04-21T18:22:17.976Z,1.50
2023-04-21T18:30:21.135Z,2.93
2023-04-21T18:34:22.609Z,2.63
2023-04-21T18:38:25.982Z,2.60
2023-04-21T18:42:27.891Z,2.37
2023-04-21T18:46:29.361Z,1.43
2023-04-21T18:50:30.779Z,3.33
2023-04-21T18:54:33.574Z,3.50
2023-04-21T18:58:35.010Z,2.60
2023-04-21T19:02:36.943Z,4.97
2023-04-21T19:06:38.563Z,4.57
2023-04-21T19:10:41.800Z,4.53
2023-04-21T19:14:47.494Z,3.67
2023-04-21T19:18:49.209Z,2.43
2023-04-21T19:22:50.700Z,3.50
2023-04-21T19:26:53.662Z,3.07
2023-04-21T19:30:55.101Z,5.23
2023-04-21T19:34:56.556Z,2.27
2023-04-21T19:38:59.005Z,2.43
2023-04-21T19:43:01.797Z,6.07
2023-04-21T19:47:03.210Z,3.63
2023-04-21T19:51:04.665Z,2.97
2023-04-21T19:55:06.428Z,3.30
2023-04-21T19:59:09.221Z,3.13
2023-04-21T20:03:10.761Z,2.90
2023-04-21T20:07:12.301Z,4.90
2023-04-21T20:11:13.761Z,2.63
2023-04-21T20:15:17.870Z,3.93
2023-04-21T20:19:19.314Z,3.03
2023-04-21T20:23:20.813Z,5.70
2023-04-21T20:27:22.238Z,4.23
2023-04-21T20:31:25.044Z,3.17
2023-04-21T20:35:26.618Z,3.37
2023-04-21T20:39:28.084Z,4.90
2023-04-21T20:43:29.825Z,2.60
2023-04-21T20:47:33.202Z,2.47
2023-04-21T20:51:39.831Z,3.10
2023-04-21T20:55:42.368Z,3.17
2023-04-21T20:59:43.816Z,3.77
2023-04-21T21:03:46.912Z,2.87
2023-04-21T21:07:48.778Z,2.70
2023-04-21T21:11:50.270Z,2.60
2023-04-21T21:15:52.045Z,4.30
2023-04-21T21:19:54.857Z,4.63
2023-04-21T21:23:56.328Z,2.70
2023-04-21T21:27:57.776Z,4.57
2023-04-21T21:31:59.552Z,3.50
2023-04-21T21:36:02.389Z,4.47
2023-04-21T21:40:04.606Z,4.30
2023-04-21T21:44:06.093Z,4.50
2023-04-21T21:48:07.720Z,5.43
2023-04-21T21:52:10.584Z,4.30
2023-04-21T21:56:16.123Z,5.00
2023-04-21T22:00:17.685Z,4.80
2023-04-21T22:04:19.145Z,6.07
2023-04-21T22:08:21.963Z,5.60
2023-04-21T22:12:23.392Z,4.47
2023-04-21T22:16:25.443Z,5.23
2023-04-21T22:20:27.039Z,5.17
2023-04-21T22:24:29.803Z,5.30
2023-04-21T22:28:31.510Z,5.13
2023-04-21T22:32:32.985Z,6.73
2023-04-21T22:36:34.705Z,4.77
2023-04-21T22:40:38.260Z,4.93
2023-04-21T22:44:39.969Z,3.93
2023-04-21T22:48:41.435Z,3.13
2023-04-21T22:52:42.884Z,3.70
2023-04-21T22:56:45.705Z,5.20
2023-04-21T23:00:47.271Z,4.10
2023-04-21T23:04:48.951Z,5.13
2023-04-21T23:08:50.292Z,4.33
2023-04-21T23:12:53.119Z,5.30
2023-04-21T23:16:54.669Z,6.63
2023-04-21T23:20:56.203Z,6.07
2023-04-21T23:24:57.914Z,6.20
2023-04-21T23:29:00.734Z,6.03
2023-04-21T23:33:02.688Z,7.90
2023-04-21T23:37:04.267Z,6.10
2023-04-21T23:41:05.848Z,4.83
2023-04-21T23:45:09.766Z,8.47
2023-04-21T23:49:11.512Z,7.10
2023-04-21T23:53:12.896Z,7.50
2023-04-21T23:57:14.292Z,6.10
